Kilkenny, Ireland

6:54 PM IST on August 29, 2015 (GMT +0100)
Kilkenny | | Change Station
CLOSE
Current Station
Personal Weather Station
Location: Kilkenny City, Co. Kilkenny
Elevation: 160 ft
Nearby Weather Stations

Elev 160 ft 52.66 °N, 7.25 °W | Updated 2 minutes ago

Partly Cloudy
Partly Cloudy
60.8 °F
Feels Like 60.8 °F
N
0.0
Wind Variable Wind from SW
Gusts 7.0 mph

Today
High -- | Low -- °F
--% Chance of Precip.
Yesterday
High -- | Low -- °F
Precip. -- in
6:33 AM 8:25 PM
Full, 100% visible
Pressure 30.04 in
Visibility 6.2 miles
Clouds Few 1600 ft
Few 1800 ft
Dew Point 54 °F
Humidity 85%
Rainfall 0.13 in
Snow Depth Not available.
UV 1 out of 12
Pollen Not available.
Air Quality Not available.
Flu Activity Not available.
METAR EIWF 291730Z 23010KT 190V280 9999 FEW016 FEW018CB 16/13 Q1017
Pressure 30.04 in
Visibility 6.2 miles
Clouds Few 1600 ft
Few 1800 ft
Dew Point 54 °F
Humidity 85%
Rainfall 0.13 in
Snow Depth Not available.
UV 1 out of 12
Pollen Not available.
Air Quality Not available.
Flu Activity Not available.
METAR EIWF 291730Z 23010KT 190V280 9999 FEW016 FEW018CB 16/13 Q1017

10-Day Weather Forecast

×

Almanac

Astronomy

Aug. 29, 2015 Rise Set
Actual Time
Civil Twilight
Nautical Twilight
Astronomical Twilight
Moon
Length of Visible Light
Length of Day
Tomorrow will be .
, % of the Moon is Illuminated

Today's Extremes

Country Highs Country Lows

Community

WunderPhotos

Upload Photos

1,850,743 photos uploaded!

WunderBlogs® & News

Nearby

Air Quality

  Air Quality AQ Index Pollutant
Not available.

Snow Depth

Station Depth Elevation

Earthquake Activity

City Distance Mag. Time & Date
Minimum magnitude displayed is 2.5.

Coastal Water Temperatures

Place Temperature

Stations

Nearby Weather Stations

Station Location Temp. Windchill Dew Point Humidity Wind Precip. Elev Updated Type